createdAt,value
2018-12-26T00:00:14.855Z,16.17
2018-12-26T00:02:43.190Z,18.97
2018-12-26T00:05:11.344Z,16.83
2018-12-26T00:07:39.520Z,18.70
2018-12-26T00:10:07.685Z,17.33
2018-12-26T00:12:35.767Z,19.37
2018-12-26T00:15:04.552Z,15.80
2018-12-26T00:17:32.980Z,20.07
2018-12-26T00:20:01.228Z,19.20
2018-12-26T00:22:29.601Z,17.13
2018-12-26T00:24:57.744Z,22.13
2018-12-26T00:27:25.974Z,20.93
2018-12-26T00:29:54.047Z,19.87
2018-12-26T00:32:22.098Z,20.63
2018-12-26T00:34:50.140Z,23.40
2018-12-26T00:37:18.360Z,24.20
2018-12-26T00:39:48.022Z,18.97
2018-12-26T00:42:16.609Z,21.57
2018-12-26T00:44:44.685Z,29.00
2018-12-26T00:47:12.742Z,27.37
2018-12-26T00:49:40.846Z,23.77
2018-12-26T00:52:08.945Z,20.40
2018-12-26T00:54:36.986Z,28.40
2018-12-26T00:57:05.064Z,25.77
2018-12-26T00:59:33.608Z,26.10
2018-12-26T01:02:01.762Z,25.23
2018-12-26T01:04:29.861Z,33.43
2018-12-26T01:06:57.999Z,29.50
2018-12-26T01:09:26.089Z,29.53
2018-12-26T01:11:54.135Z,29.80
2018-12-26T01:14:22.306Z,35.63
2018-12-26T01:16:50.340Z,35.00
2018-12-26T01:19:18.401Z,33.10
2018-12-26T01:21:47.573Z,34.60
2018-12-26T01:24:15.771Z,38.57
2018-12-26T01:26:43.866Z,38.13
2018-12-26T01:29:12.115Z,39.87
2018-12-26T01:31:40.255Z,36.57
2018-12-26T01:34:08.315Z,40.53
2018-12-26T01:36:36.466Z,36.77
2018-12-26T01:39:06.128Z,38.37
2018-12-26T01:41:34.268Z,43.43
2018-12-26T01:44:02.344Z,41.07
2018-12-26T01:46:30.664Z,40.77
2018-12-26T01:48:58.743Z,39.53
2018-12-26T01:51:26.882Z,38.37
2018-12-26T01:53:54.977Z,41.13
2018-12-26T01:56:27.969Z,46.83
2018-12-26T01:58:53.111Z,43.63
2018-12-26T02:01:21.326Z,34.50
2018-12-26T02:03:49.416Z,44.07
2018-12-26T02:06:17.682Z,39.47
2018-12-26T02:08:45.768Z,43.30
2018-12-26T02:11:13.921Z,47.53
2018-12-26T02:13:42.090Z,44.37
2018-12-26T02:16:10.218Z,42.07
2018-12-26T02:18:38.505Z,42.13
2018-12-26T02:21:06.562Z,45.67
2018-12-26T02:23:36.135Z,35.47
2018-12-26T02:26:04.524Z,37.07
2018-12-26T02:28:32.669Z,43.97
2018-12-26T02:31:00.996Z,39.43
2018-12-26T02:33:29.051Z,43.47
2018-12-26T02:35:57.097Z,39.13
2018-12-26T02:38:25.260Z,43.13
2018-12-26T02:40:53.303Z,39.57
2018-12-26T02:43:21.397Z,43.10
2018-12-26T02:45:49.426Z,42.57
2018-12-26T02:48:17.842Z,43.20
2018-12-26T02:50:45.995Z,38.57
2018-12-26T02:53:14.092Z,43.07
2018-12-26T02:55:42.169Z,38.33
2018-12-26T02:58:10.169Z,37.90
2018-12-26T03:00:38.340Z,43.57
2018-12-26T03:03:06.651Z,37.37
2018-12-26T03:05:35.011Z,40.17
2018-12-26T03:08:03.387Z,36.27
2018-12-26T03:10:31.556Z,41.83
2018-12-26T03:13:00.039Z,40.07
2018-12-26T03:15:28.632Z,40.27
2018-12-26T03:17:56.706Z,39.00
2018-12-26T03:20:24.833Z,38.30
2018-12-26T03:22:52.915Z,39.10
2018-12-26T03:25:21.038Z,39.20
2018-12-26T03:27:49.259Z,37.87
2018-12-26T03:30:17.487Z,37.30
2018-12-26T03:32:45.566Z,40.40
2018-12-26T03:35:13.982Z,39.27
2018-12-26T03:37:42.377Z,42.37
2018-12-26T03:40:10.983Z,35.30
2018-12-26T03:42:39.737Z,38.00
2018-12-26T03:45:07.748Z,40.63
2018-12-26T03:47:37.551Z,42.70
2018-12-26T03:50:24.718Z,42.83
2018-12-26T03:52:59.201Z,40.73
2018-12-26T03:55:27.353Z,40.13
2018-12-26T03:57:55.624Z,43.33
2018-12-26T04:00:23.697Z,42.73
2018-12-26T04:02:51.867Z,44.47
2018-12-26T04:05:19.980Z,45.43
2018-12-26T04:07:48.630Z,40.87
2018-12-26T04:10:16.898Z,42.13
2018-12-26T04:12:45.704Z,46.97
2018-12-26T04:15:14.967Z,44.30
2018-12-26T04:17:43.121Z,41.17
2018-12-26T04:20:11.613Z,41.70
2018-12-26T04:22:39.927Z,46.53
2018-12-26T04:25:08.251Z,46.70
2018-12-26T04:27:36.394Z,44.50
2018-12-26T04:30:06.629Z,45.20
2018-12-26T04:32:34.676Z,44.90
2018-12-26T04:35:03.157Z,49.63
2018-12-26T04:37:31.227Z,46.83
2018-12-26T04:39:59.250Z,46.10
2018-12-26T04:42:27.304Z,44.53
2018-12-26T04:44:55.348Z,47.53
2018-12-26T04:47:23.388Z,41.73
2018-12-26T04:49:51.797Z,47.23
2018-12-26T04:52:20.025Z,46.10
2018-12-26T04:54:48.283Z,51.83
2018-12-26T04:57:24.485Z,47.93
2018-12-26T04:59:46.580Z,44.60
2018-12-26T05:02:14.974Z,43.83
2018-12-26T05:04:43.081Z,48.17
2018-12-26T05:07:11.138Z,44.67
2018-12-26T05:09:39.230Z,43.70
2018-12-26T05:12:07.274Z,43.77
2018-12-26T05:14:35.502Z,44.13
2018-12-26T05:17:03.689Z,46.20
2018-12-26T05:19:31.866Z,45.63
2018-12-26T05:22:00.197Z,52.80
2018-12-26T05:24:28.429Z,55.77
2018-12-26T05:26:56.497Z,49.50
2018-12-26T05:29:24.654Z,50.57
2018-12-26T05:31:52.775Z,54.53
2018-12-26T05:34:20.961Z,56.00
2018-12-26T05:36:50.138Z,58.40
2018-12-26T05:39:18.204Z,62.13
2018-12-26T05:41:46.249Z,64.03
2018-12-26T05:44:14.324Z,65.23
2018-12-26T05:46:42.329Z,59.67
2018-12-26T05:49:10.390Z,67.23
2018-12-26T05:51:38.809Z,76.80
2018-12-26T05:54:06.924Z,69.60
2018-12-26T05:56:35.034Z,73.07
2018-12-26T05:59:03.209Z,70.33
2018-12-26T06:01:31.302Z,84.40
2018-12-26T06:03:59.454Z,70.87
2018-12-26T06:06:27.561Z,80.83
2018-12-26T06:08:55.619Z,75.67
2018-12-26T06:11:23.728Z,81.57
2018-12-26T06:13:52.026Z,82.57
2018-12-26T06:16:20.280Z,86.93
2018-12-26T06:18:48.287Z,89.70
2018-12-26T06:21:16.661Z,90.03
2018-12-26T06:23:44.710Z,96.80
2018-12-26T06:26:12.760Z,89.67
2018-12-26T06:28:40.920Z,97.43
2018-12-26T06:31:09.067Z,84.17
2018-12-26T06:33:37.069Z,98.57
2018-12-26T06:36:05.117Z,96.87
2018-12-26T06:38:33.270Z,85.53
2018-12-26T06:41:01.620Z,92.80
2018-12-26T06:43:29.865Z,96.07
2018-12-26T06:45:58.149Z,105.63
2018-12-26T06:48:26.374Z,94.13
2018-12-26T06:50:54.485Z,89.37
2018-12-26T06:53:22.902Z,102.73
2018-12-26T06:55:51.546Z,104.73
2018-12-26T06:58:19.796Z,99.30
2018-12-26T07:00:47.900Z,99.70
2018-12-26T07:03:15.946Z,94.00
2018-12-26T07:05:44.230Z,96.10
2018-12-26T07:08:12.317Z,102.90
2018-12-26T07:10:40.404Z,92.57
2018-12-26T07:13:08.694Z,96.97
2018-12-26T07:15:36.886Z,84.67
2018-12-26T07:18:04.977Z,96.23
2018-12-26T07:20:33.426Z,87.30
2018-12-26T07:23:01.609Z,87.97
2018-12-26T07:25:29.701Z,78.20
2018-12-26T07:27:57.870Z,71.50
2018-12-26T07:30:26.133Z,63.97
2018-12-26T07:32:54.526Z,63.73
2018-12-26T07:35:23.052Z,61.33
2018-12-26T07:37:51.082Z,53.97
2018-12-26T07:40:19.214Z,46.90
2018-12-26T07:42:47.387Z,50.40
2018-12-26T07:45:15.945Z,51.37
2018-12-26T07:47:44.192Z,59.00
2018-12-26T07:50:13.461Z,60.00
2018-12-26T07:52:42.038Z,76.90
2018-12-26T07:55:13.746Z,77.00
2018-12-26T07:57:41.866Z,78.80
2018-12-26T08:00:10.322Z,77.50
2018-12-26T08:02:38.391Z,90.63
2018-12-26T08:05:06.430Z,94.57
2018-12-26T08:07:34.514Z,88.10
2018-12-26T08:10:02.886Z,83.77
2018-12-26T08:12:30.901Z,83.80
2018-12-26T08:14:59.022Z,102.70
2018-12-26T08:17:27.042Z,95.80
2018-12-26T08:19:55.121Z,80.50
2018-12-26T08:22:23.403Z,76.13
2018-12-26T08:24:51.592Z,91.20
2018-12-26T08:27:21.153Z,77.23
2018-12-26T08:29:49.268Z,72.00
2018-12-26T08:32:17.428Z,77.33
2018-12-26T08:34:45.622Z,99.57
2018-12-26T08:37:13.881Z,106.57
2018-12-26T08:39:41.921Z,82.13
2018-12-26T08:42:10.087Z,88.80
2018-12-26T08:44:38.197Z,83.37
2018-12-26T08:47:06.244Z,100.80
2018-12-26T08:49:34.317Z,102.30
2018-12-26T08:52:02.473Z,93.77
2018-12-26T08:54:30.555Z,83.67
2018-12-26T08:56:58.700Z,87.80
2018-12-26T08:59:26.797Z,85.33
2018-12-26T09:01:55.110Z,86.20
2018-12-26T09:04:23.182Z,79.03
2018-12-26T09:06:51.288Z,69.73
2018-12-26T09:09:19.481Z,73.70
2018-12-26T09:11:47.663Z,70.37
2018-12-26T09:14:16.079Z,63.27
2018-12-26T09:16:44.508Z,61.33
2018-12-26T09:19:13.580Z,66.60
2018-12-26T09:21:42.009Z,60.97
2018-12-26T09:24:10.377Z,63.67
2018-12-26T09:26:39.605Z,59.33
2018-12-26T09:29:07.753Z,57.03
2018-12-26T09:31:35.779Z,65.03
2018-12-26T09:34:03.951Z,60.40
2018-12-26T09:36:32.012Z,62.10
2018-12-26T09:39:00.089Z,75.70
2018-12-26T09:41:28.132Z,55.73
2018-12-26T09:43:56.402Z,69.77
2018-12-26T09:46:24.523Z,61.67
2018-12-26T09:48:52.946Z,58.03
2018-12-26T09:51:21.138Z,55.03
2018-12-26T09:53:49.687Z,61.10
2018-12-26T09:56:17.816Z,61.23
2018-12-26T09:58:52.485Z,63.10
2018-12-26T10:01:16.227Z,54.23
2018-12-26T10:03:44.437Z,63.47
2018-12-26T10:06:12.579Z,63.77
2018-12-26T10:08:40.683Z,70.53
2018-12-26T10:11:08.817Z,59.97
2018-12-26T10:13:36.973Z,63.10
2018-12-26T10:16:05.108Z,57.73
2018-12-26T10:18:33.813Z,68.20
2018-12-26T10:21:02.307Z,60.57
2018-12-26T10:23:30.593Z,56.57
2018-12-26T10:25:59.018Z,52.87
2018-12-26T10:28:27.378Z,56.00
2018-12-26T10:30:55.727Z,61.67
2018-12-26T10:33:23.904Z,59.63
2018-12-26T10:35:52.409Z,57.60
2018-12-26T10:38:20.474Z,48.17
2018-12-26T10:40:48.752Z,52.17
2018-12-26T10:43:17.403Z,58.97
2018-12-26T10:45:45.486Z,51.57
2018-12-26T10:48:13.728Z,56.20
2018-12-26T10:50:41.995Z,56.47
2018-12-26T10:53:10.186Z,48.60
2018-12-26T10:55:38.761Z,54.80
2018-12-26T10:58:06.893Z,44.93
2018-12-26T11:00:35.090Z,41.93
2018-12-26T11:03:03.614Z,41.50
2018-12-26T11:05:31.926Z,43.13
2018-12-26T11:08:00.286Z,42.30
2018-12-26T11:10:28.606Z,40.90
2018-12-26T11:12:56.811Z,47.80
2018-12-26T11:15:26.305Z,44.63
2018-12-26T11:17:56.144Z,50.47
2018-12-26T11:20:24.646Z,49.10
2018-12-26T11:22:53.065Z,50.97
2018-12-26T11:25:21.440Z,47.70
2018-12-26T11:27:50.150Z,50.27
2018-12-26T11:30:18.541Z,49.90
2018-12-26T11:32:46.705Z,50.57
2018-12-26T11:35:14.892Z,48.40
2018-12-26T11:37:43.127Z,54.37
2018-12-26T11:40:11.396Z,40.53
2018-12-26T11:42:39.588Z,47.23
2018-12-26T11:45:08.335Z,49.83
2018-12-26T11:47:36.538Z,49.50
2018-12-26T11:50:06.798Z,49.40
2018-12-26T11:52:35.012Z,41.87
2018-12-26T11:55:04.051Z,49.47
2018-12-26T11:57:32.201Z,52.17
2018-12-26T12:00:00.751Z,44.23
2018-12-26T12:02:29.213Z,53.93
2018-12-26T12:04:57.373Z,50.30
2018-12-26T12:07:25.740Z,55.00
2018-12-26T12:09:53.942Z,52.67
2018-12-26T12:12:22.276Z,64.10
2018-12-26T12:14:50.527Z,51.27
2018-12-26T12:17:18.825Z,52.00
2018-12-26T12:19:47.343Z,52.83
2018-12-26T12:22:15.568Z,52.57
2018-12-26T12:24:43.767Z,53.03
2018-12-26T12:27:11.967Z,58.80
2018-12-26T12:29:40.433Z,58.43
2018-12-26T12:32:08.549Z,70.23
2018-12-26T12:34:37.071Z,64.17
2018-12-26T12:37:05.620Z,63.07
2018-12-26T12:39:34.239Z,58.80
2018-12-26T12:42:02.370Z,64.10
2018-12-26T12:44:30.674Z,69.97
2018-12-26T12:46:58.798Z,71.73
2018-12-26T12:49:26.956Z,74.77
2018-12-26T12:51:55.111Z,70.80
2018-12-26T12:54:23.182Z,72.57
2018-12-26T12:56:51.291Z,64.13
2018-12-26T12:59:19.718Z,74.37
2018-12-26T13:01:48.013Z,78.57
2018-12-26T13:04:16.187Z,79.13
2018-12-26T13:06:44.268Z,102.20
2018-12-26T13:09:12.547Z,74.73
2018-12-26T13:11:40.617Z,84.63
2018-12-26T13:14:08.821Z,75.43
2018-12-26T13:16:37.683Z,77.87
2018-12-26T13:19:05.917Z,87.23
2018-12-26T13:21:34.001Z,84.43
2018-12-26T13:24:02.145Z,100.20
2018-12-26T13:26:30.323Z,107.17
2018-12-26T13:28:58.636Z,127.20
2018-12-26T13:31:26.985Z,112.30
2018-12-26T13:33:55.277Z,136.53
2018-12-26T13:36:23.410Z,131.50
2018-12-26T13:38:51.609Z,149.17
2018-12-26T13:41:20.011Z,154.90
2018-12-26T13:43:48.255Z,145.87
2018-12-26T13:46:16.319Z,167.93
2018-12-26T13:48:44.541Z,137.73
2018-12-26T13:51:12.612Z,153.80
2018-12-26T13:53:40.679Z,186.83
2018-12-26T13:56:08.891Z,160.13
2018-12-26T13:58:36.960Z,169.50
2018-12-26T14:01:05.173Z,148.07
2018-12-26T14:03:33.367Z,146.10
2018-12-26T14:06:02.395Z,163.20
2018-12-26T14:08:30.551Z,139.17
2018-12-26T14:10:58.952Z,150.73
2018-12-26T14:13:27.235Z,174.73
2018-12-26T14:15:55.360Z,157.37
2018-12-26T14:18:23.578Z,164.93
2018-12-26T14:20:51.709Z,149.87
2018-12-26T14:23:19.827Z,197.70
2018-12-26T14:25:49.305Z,171.50
2018-12-26T14:28:17.339Z,150.07
2018-12-26T14:30:45.552Z,153.93
2018-12-26T14:33:13.721Z,179.93
2018-12-26T14:35:50.666Z,148.57
2018-12-26T14:38:18.863Z,127.80
2018-12-26T14:40:46.910Z,159.63
2018-12-26T14:43:15.038Z,133.67
2018-12-26T14:45:43.199Z,127.63
2018-12-26T14:48:11.259Z,112.20
2018-12-26T14:50:39.817Z,115.67
2018-12-26T14:53:08.063Z,127.30
2018-12-26T14:55:36.402Z,120.67
2018-12-26T14:58:04.972Z,115.13
2018-12-26T15:00:33.124Z,130.87
2018-12-26T15:03:01.440Z,113.00
2018-12-26T15:05:29.708Z,131.00
2018-12-26T15:07:57.781Z,116.07
2018-12-26T15:10:25.799Z,107.13
2018-12-26T15:12:53.935Z,102.60
2018-12-26T15:15:22.260Z,111.23
2018-12-26T15:17:50.609Z,108.00
2018-12-26T15:20:19.048Z,95.87
2018-12-26T15:22:47.434Z,109.03
2018-12-26T15:25:15.664Z,102.03
2018-12-26T15:27:43.838Z,91.50
2018-12-26T15:30:12.005Z,86.93
2018-12-26T15:32:40.138Z,86.63
2018-12-26T15:35:08.410Z,89.63
2018-12-26T15:37:36.574Z,87.87
2018-12-26T15:40:08.373Z,84.50
2018-12-26T15:42:36.559Z,94.87
2018-12-26T15:45:05.763Z,90.80
2018-12-26T15:47:33.816Z,94.43
2018-12-26T15:50:02.466Z,90.60
2018-12-26T15:52:30.718Z,98.10
2018-12-26T15:54:58.846Z,104.57
2018-12-26T15:57:27.436Z,102.53
2018-12-26T15:59:55.934Z,111.23
2018-12-26T16:02:24.232Z,114.20
2018-12-26T16:04:52.261Z,107.93
2018-12-26T16:07:20.454Z,106.50
2018-12-26T16:09:48.781Z,117.60
2018-12-26T16:12:17.441Z,92.10
2018-12-26T16:14:45.650Z,98.80
2018-12-26T16:17:13.727Z,94.97
2018-12-26T16:19:41.907Z,90.33
2018-12-26T16:22:10.202Z,102.30
2018-12-26T16:24:38.531Z,105.27
2018-12-26T16:27:07.025Z,90.47
2018-12-26T16:29:35.625Z,92.80
2018-12-26T16:32:04.335Z,96.77
2018-12-26T16:34:32.496Z,106.53
2018-12-26T16:37:00.791Z,94.50
2018-12-26T16:39:35.736Z,94.00
2018-12-26T16:41:59.168Z,90.90
2018-12-26T16:44:27.319Z,95.53
2018-12-26T16:46:55.550Z,102.03
2018-12-26T16:49:23.892Z,108.20
2018-12-26T16:51:52.048Z,97.20
2018-12-26T16:54:20.401Z,119.03
2018-12-26T16:56:48.732Z,120.23
2018-12-26T16:59:16.887Z,116.53
2018-12-26T17:01:44.947Z,112.80
2018-12-26T17:04:12.982Z,113.70
2018-12-26T17:06:41.064Z,114.17
2018-12-26T17:09:12.394Z,127.73
2018-12-26T17:11:40.510Z,128.43
2018-12-26T17:14:08.581Z,119.13
2018-12-26T17:16:36.714Z,127.60
2018-12-26T17:19:04.962Z,119.23
2018-12-26T17:21:33.202Z,117.13
2018-12-26T17:24:01.272Z,105.27
2018-12-26T17:26:29.429Z,117.27
2018-12-26T17:28:58.620Z,115.93
2018-12-26T17:31:26.912Z,109.10
2018-12-26T17:33:55.045Z,106.87
2018-12-26T17:36:25.725Z,103.37
2018-12-26T17:38:55.437Z,108.77
2018-12-26T17:41:23.854Z,101.47
2018-12-26T17:43:52.214Z,113.73
2018-12-26T17:46:20.461Z,104.77
2018-12-26T17:48:48.840Z,117.60
2018-12-26T17:51:20.950Z,104.07
2018-12-26T17:54:52.129Z,99.10
2018-12-26T17:57:39.116Z,84.03
2018-12-26T18:01:01.065Z,88.13
2018-12-26T18:03:29.434Z,73.07
2018-12-26T18:05:57.492Z,79.90
2018-12-26T18:08:26.946Z,71.97
2018-12-26T18:10:55.111Z,77.10
2018-12-26T18:13:23.165Z,68.87
2018-12-26T18:15:51.366Z,73.20
2018-12-26T18:18:19.546Z,63.20
2018-12-26T18:20:47.671Z,65.40
2018-12-26T18:23:15.789Z,64.20
2018-12-26T18:25:43.924Z,66.40
2018-12-26T18:28:12.120Z,59.07
2018-12-26T18:30:40.374Z,59.13
2018-12-26T18:33:08.733Z,60.60
2018-12-26T18:35:36.990Z,59.80
2018-12-26T18:38:05.268Z,64.47
2018-12-26T18:40:33.993Z,67.43
2018-12-26T18:43:02.112Z,64.17
2018-12-26T18:45:30.462Z,74.60
2018-12-26T18:47:58.649Z,71.90
2018-12-26T18:50:26.814Z,71.80
2018-12-26T18:52:55.131Z,67.47
2018-12-26T18:55:23.674Z,64.10
2018-12-26T18:57:51.974Z,63.23
2018-12-26T19:00:20.109Z,58.63
2018-12-26T19:02:48.399Z,59.03
2018-12-26T19:05:16.416Z,58.13
2018-12-26T19:07:44.503Z,58.27
2018-12-26T19:10:12.668Z,59.23
2018-12-26T19:12:40.772Z,57.77
2018-12-26T19:15:09.336Z,57.53
2018-12-26T19:17:37.480Z,59.43
2018-12-26T19:20:08.614Z,56.80
2018-12-26T19:22:36.713Z,57.50
2018-12-26T19:25:05.384Z,64.40
2018-12-26T19:27:33.539Z,57.23
2018-12-26T19:30:01.829Z,65.13
2018-12-26T19:32:30.188Z,67.77
2018-12-26T19:34:59.290Z,57.63
2018-12-26T19:37:27.792Z,57.70
2018-12-26T19:39:56.191Z,55.40
2018-12-26T19:42:24.570Z,61.80
2018-12-26T19:44:52.959Z,55.20
2018-12-26T19:47:21.074Z,53.73
2018-12-26T19:49:49.120Z,48.40
2018-12-26T19:52:17.344Z,59.97
2018-12-26T19:54:45.453Z,64.83
2018-12-26T19:57:13.553Z,60.63
2018-12-26T19:59:41.580Z,65.70
2018-12-26T20:02:09.955Z,58.37
2018-12-26T20:04:38.603Z,64.50
2018-12-26T20:07:06.891Z,64.93
2018-12-26T20:09:35.463Z,63.50
2018-12-26T20:12:08.593Z,59.23
2018-12-26T20:14:36.807Z,62.63
2018-12-26T20:17:05.364Z,62.57
2018-12-26T20:19:33.477Z,55.20
2018-12-26T20:22:01.718Z,55.10
2018-12-26T20:24:29.808Z,48.57
2018-12-26T20:26:57.850Z,49.30
2018-12-26T20:29:26.057Z,52.47
2018-12-26T20:31:57.080Z,49.60
2018-12-26T20:34:24.178Z,48.57
2018-12-26T20:36:52.357Z,52.87
2018-12-26T20:39:20.762Z,50.23
2018-12-26T20:41:48.911Z,49.53
2018-12-26T20:44:17.241Z,54.07
2018-12-26T20:46:45.354Z,50.40
2018-12-26T20:49:13.601Z,58.73
2018-12-26T20:51:41.838Z,53.40
2018-12-26T20:54:10.036Z,52.73
2018-12-26T20:56:38.332Z,54.50
2018-12-26T20:59:06.483Z,52.27
2018-12-26T21:01:34.730Z,49.40
2018-12-26T21:04:03.027Z,53.77
2018-12-26T21:06:31.122Z,56.07
2018-12-26T21:08:59.217Z,56.10
2018-12-26T21:11:27.431Z,61.10
2018-12-26T21:13:55.535Z,55.97
2018-12-26T21:16:23.986Z,53.93
2018-12-26T21:18:52.200Z,53.73
2018-12-26T21:21:20.286Z,55.87
2018-12-26T21:23:48.467Z,58.70
2018-12-26T21:26:16.617Z,56.60
2018-12-26T21:28:44.870Z,59.77
2018-12-26T21:31:13.070Z,64.37
2018-12-26T21:33:41.444Z,64.93
2018-12-26T21:36:11.175Z,60.33
2018-12-26T21:38:39.241Z,68.77
2018-12-26T21:41:07.425Z,70.90
2018-12-26T21:43:35.633Z,73.70
2018-12-26T21:46:03.804Z,72.73
2018-12-26T21:48:31.916Z,68.90
2018-12-26T21:51:00.016Z,70.03
2018-12-26T21:53:28.210Z,75.27
2018-12-26T21:55:56.352Z,73.20
2018-12-26T21:58:24.436Z,67.60
2018-12-26T22:00:52.497Z,76.67
2018-12-26T22:03:20.601Z,72.40
2018-12-26T22:05:48.620Z,72.07
2018-12-26T22:08:16.729Z,72.07
2018-12-26T22:10:45.879Z,73.70
2018-12-26T22:13:13.992Z,75.40
2018-12-26T22:15:42.117Z,72.57
2018-12-26T22:18:10.745Z,74.50
2018-12-26T22:20:39.025Z,73.10
2018-12-26T22:23:07.087Z,71.13
2018-12-26T22:25:35.312Z,68.80
2018-12-26T22:28:03.660Z,75.60
2018-12-26T22:30:31.836Z,70.13
2018-12-26T22:33:00.099Z,76.20
2018-12-26T22:35:28.278Z,80.80
2018-12-26T22:37:56.350Z,80.83
2018-12-26T22:40:24.698Z,82.07
2018-12-26T22:42:52.920Z,70.97
2018-12-26T22:45:21.048Z,77.57
2018-12-26T22:47:49.308Z,76.07
2018-12-26T22:50:17.369Z,81.53
2018-12-26T22:52:45.429Z,82.40
2018-12-26T22:55:15.475Z,84.10
2018-12-26T22:57:43.637Z,90.77
2018-12-26T23:00:14.721Z,87.87
2018-12-26T23:02:44.051Z,90.57
2018-12-26T23:05:12.232Z,88.23
2018-12-26T23:07:40.424Z,89.63
2018-12-26T23:10:08.702Z,94.27
2018-12-26T23:12:36.928Z,90.73
2018-12-26T23:15:06.540Z,92.10
2018-12-26T23:17:34.774Z,97.83
2018-12-26T23:20:02.955Z,112.73
2018-12-26T23:22:31.008Z,112.97
2018-12-26T23:24:59.198Z,104.80
2018-12-26T23:27:28.334Z,96.83
2018-12-26T23:29:56.542Z,110.50
2018-12-26T23:32:24.614Z,115.13
2018-12-26T23:34:52.870Z,98.73
2018-12-26T23:37:21.210Z,104.17
2018-12-26T23:39:49.579Z,102.70
2018-12-26T23:42:17.749Z,95.27
2018-12-26T23:44:45.882Z,89.87
2018-12-26T23:47:14.099Z,95.67
2018-12-26T23:49:42.685Z,100.70
2018-12-26T23:52:10.698Z,102.13
2018-12-26T23:54:38.837Z,102.90
2018-12-26T23:57:06.876Z,101.90
2018-12-26T23:59:35.109Z,107.77
